N162AB KSJC-KSMF
Flight info
| Callsign | N162AB |
|---|---|
| Flight time | 0h 31m |
| Altitude | VFR |
| Route | |
| Aircraft | SF50/L-VGDW/C |
Departure
| Time | 2026-05-06 04:39 |
|---|---|
| Airport | Norman Y. Mineta San Jose International Airport (KSJC) |
Arrival
| Time | 2026-05-06 05:10 |
|---|---|
| Airport | Sacramento International Airport (KSMF) |
| Time | Latitude | Longitude | Altitude | Speed | Heading |
|---|---|---|---|---|---|
| 2026-05-06 04:27 | 37.36388 | -121.93744 | 44 ft | 0 kts | 234° |
| 2026-05-06 04:31 | 37.36391 | -121.93752 | 44 ft | 1 kts | 335° |
| 2026-05-06 04:31 | 37.36394 | -121.93753 | 44 ft | 2 kts | 1° |
| 2026-05-06 04:31 | 37.36400 | -121.93749 | 44 ft | 1 kts | 53° |
| 2026-05-06 04:31 | 37.36419 | -121.93718 | 44 ft | 2 kts | 50° |
| 2026-05-06 04:32 | 37.36420 | -121.93716 | 44 ft | 0 kts | 50° |
| 2026-05-06 04:32 | 37.36444 | -121.93686 | 45 ft | 9 kts | 50° |
| 2026-05-06 04:32 | 37.36454 | -121.93614 | 45 ft | 10 kts | 142° |
| 2026-05-06 04:32 | 37.36402 | -121.93562 | 45 ft | 10 kts | 138° |
| 2026-05-06 04:33 | 37.36351 | -121.93506 | 45 ft | 9 kts | 139° |
| 2026-05-06 04:33 | 37.36312 | -121.93463 | 46 ft | 6 kts | 139° |
| 2026-05-06 04:33 | 37.36285 | -121.93434 | 48 ft | 6 kts | 139° |
| 2026-05-06 04:33 | 37.36255 | -121.93399 | 49 ft | 6 kts | 138° |
| 2026-05-06 04:34 | 37.36221 | -121.93362 | 50 ft | 8 kts | 142° |
| 2026-05-06 04:34 | 37.36161 | -121.93299 | 50 ft | 13 kts | 136° |
| 2026-05-06 04:34 | 37.36126 | -121.93227 | 52 ft | 8 kts | 63° |
| 2026-05-06 04:34 | 37.36137 | -121.93171 | 53 ft | 6 kts | 124° |
| 2026-05-06 04:35 | 37.36107 | -121.93133 | 54 ft | 7 kts | 139° |
| 2026-05-06 04:35 | 37.36057 | -121.93078 | 54 ft | 13 kts | 139° |
| 2026-05-06 04:35 | 37.35976 | -121.92988 | 53 ft | 18 kts | 138° |
| 2026-05-06 04:35 | 37.35874 | -121.92877 | 52 ft | 19 kts | 138° |
| 2026-05-06 04:36 | 37.35782 | -121.92778 | 53 ft | 16 kts | 140° |
| 2026-05-06 04:36 | 37.35707 | -121.92695 | 54 ft | 12 kts | 140° |
| 2026-05-06 04:36 | 37.35661 | -121.92637 | 55 ft | 7 kts | 104° |
| 2026-05-06 04:36 | 37.35672 | -121.92595 | 55 ft | 5 kts | 49° |
| 2026-05-06 04:37 | 37.35691 | -121.92566 | 56 ft | 4 kts | 49° |
| 2026-05-06 04:37 | 37.35709 | -121.92541 | 53 ft | 2 kts | 49° |
| 2026-05-06 04:37 | 37.35713 | -121.92534 | 53 ft | 3 kts | 50° |
| 2026-05-06 04:37 | 37.35757 | -121.92473 | 55 ft | 10 kts | 45° |
| 2026-05-06 04:38 | 37.35811 | -121.92491 | 55 ft | 18 kts | 320° |
| 2026-05-06 04:38 | 37.36069 | -121.92769 | 54 ft | 81 kts | 319° |
| 2026-05-06 04:38 | 37.36625 | -121.93375 | 134 ft | 122 kts | 319° |
| 2026-05-06 04:38 | 37.37255 | -121.94099 | 428 ft | 110 kts | 318° |
| 2026-05-06 04:39 | 37.37621 | -121.94519 | 625 ft | 116 kts | 318° |
| 2026-05-06 04:39 | 37.38328 | -121.95325 | 1036 ft | 102 kts | 317° |
| 2026-05-06 04:39 | 37.38681 | -121.95749 | 1242 ft | 108 kts | 316° |
| 2026-05-06 04:39 | 37.39282 | -121.96405 | 1461 ft | 121 kts | 324° |
| 2026-05-06 04:40 | 37.40097 | -121.96777 | 1604 ft | 130 kts | 349° |
| 2026-05-06 04:40 | 37.41039 | -121.96840 | 1741 ft | 132 kts | 358° |
| 2026-05-06 04:40 | 37.41949 | -121.96779 | 1972 ft | 131 kts | 1° |
| 2026-05-06 04:40 | 37.42863 | -121.96645 | 2208 ft | 133 kts | 5° |
| 2026-05-06 04:41 | 37.43782 | -121.96444 | 2439 ft | 136 kts | 8° |
| 2026-05-06 04:41 | 37.44771 | -121.96167 | 2644 ft | 157 kts | 11° |
| 2026-05-06 04:41 | 37.45900 | -121.95822 | 2970 ft | 173 kts | 11° |
| 2026-05-06 04:41 | 37.47093 | -121.95476 | 3281 ft | 184 kts | 10° |
| 2026-05-06 04:42 | 37.48436 | -121.95147 | 3436 ft | 201 kts | 8° |
| 2026-05-06 04:42 | 37.49807 | -121.94881 | 3878 ft | 195 kts | 7° |
| 2026-05-06 04:42 | 37.51151 | -121.94523 | 4034 ft | 202 kts | 11° |
| 2026-05-06 04:42 | 37.52517 | -121.94163 | 4271 ft | 203 kts | 13° |
| 2026-05-06 04:43 | 37.53740 | -121.93800 | 4628 ft | 192 kts | 12° |
| 2026-05-06 04:43 | 37.54648 | -121.93558 | 4941 ft | 191 kts | 12° |
| 2026-05-06 04:44 | 37.55943 | -121.93139 | 5145 ft | 199 kts | 14° |
| 2026-05-06 04:44 | 37.57286 | -121.92710 | 5594 ft | 184 kts | 14° |
| 2026-05-06 04:44 | 37.58496 | -121.92324 | 5967 ft | 186 kts | 14° |
| 2026-05-06 04:44 | 37.59731 | -121.91885 | 6433 ft | 177 kts | 16° |
| 2026-05-06 04:45 | 37.60929 | -121.91439 | 6759 ft | 186 kts | 16° |
| 2026-05-06 04:45 | 37.62139 | -121.90955 | 7317 ft | 176 kts | 19° |
| 2026-05-06 04:45 | 37.63222 | -121.90444 | 7746 ft | 177 kts | 22° |
| 2026-05-06 04:45 | 37.64357 | -121.89827 | 8141 ft | 176 kts | 23° |
| 2026-05-06 04:46 | 37.65463 | -121.89242 | 8707 ft | 173 kts | 22° |
| 2026-05-06 04:46 | 37.66646 | -121.88705 | 9087 ft | 184 kts | 18° |
| 2026-05-06 04:46 | 37.67845 | -121.88203 | 9770 ft | 178 kts | 20° |
| 2026-05-06 04:46 | 37.69003 | -121.87670 | 10244 ft | 182 kts | 20° |
| 2026-05-06 04:47 | 37.70229 | -121.87163 | 10682 ft | 187 kts | 17° |
| 2026-05-06 04:47 | 37.71516 | -121.86676 | 10868 ft | 194 kts | 18° |
| 2026-05-06 04:47 | 37.72797 | -121.86163 | 10960 ft | 199 kts | 18° |
| 2026-05-06 04:47 | 37.74159 | -121.85607 | 10945 ft | 210 kts | 18° |
| 2026-05-06 04:48 | 37.75587 | -121.85042 | 10893 ft | 220 kts | 18° |
| 2026-05-06 04:48 | 37.77116 | -121.84456 | 10688 ft | 234 kts | 17° |
| 2026-05-06 04:48 | 37.78693 | -121.83869 | 10608 ft | 240 kts | 17° |
| 2026-05-06 04:48 | 37.80303 | -121.83290 | 10670 ft | 239 kts | 16° |
| 2026-05-06 04:49 | 37.81926 | -121.82729 | 10466 ft | 247 kts | 15° |
| 2026-05-06 04:49 | 37.83544 | -121.82153 | 10656 ft | 235 kts | 16° |
| 2026-05-06 04:49 | 37.85134 | -121.81577 | 10490 ft | 236 kts | 17° |
| 2026-05-06 04:49 | 37.86647 | -121.81005 | 10568 ft | 227 kts | 17° |
| 2026-05-06 04:50 | 37.88140 | -121.80427 | 10501 ft | 225 kts | 17° |
| 2026-05-06 04:50 | 37.89618 | -121.79874 | 10551 ft | 218 kts | 17° |
| 2026-05-06 04:50 | 37.91066 | -121.79312 | 10541 ft | 214 kts | 18° |
| 2026-05-06 04:50 | 37.92452 | -121.78732 | 10528 ft | 211 kts | 19° |
| 2026-05-06 04:51 | 37.93863 | -121.78147 | 10448 ft | 212 kts | 19° |
| 2026-05-06 04:51 | 37.95219 | -121.77568 | 10516 ft | 206 kts | 20° |
| 2026-05-06 04:51 | 37.96574 | -121.76964 | 10471 ft | 205 kts | 19° |
| 2026-05-06 04:51 | 37.97950 | -121.76460 | 10443 ft | 204 kts | 15° |
| 2026-05-06 04:52 | 37.99321 | -121.76000 | 10399 ft | 204 kts | 15° |
| 2026-05-06 04:52 | 38.00689 | -121.75519 | 10331 ft | 206 kts | 16° |
| 2026-05-06 04:52 | 38.02056 | -121.75120 | 10429 ft | 198 kts | 9° |
| 2026-05-06 04:52 | 38.03422 | -121.74891 | 10401 ft | 197 kts | 8° |
| 2026-05-06 04:53 | 38.04783 | -121.74695 | 10399 ft | 196 kts | 7° |
| 2026-05-06 04:53 | 38.06133 | -121.74555 | 10372 ft | 195 kts | 5° |
| 2026-05-06 04:53 | 38.07477 | -121.74453 | 10375 ft | 192 kts | 4° |
| 2026-05-06 04:53 | 38.08788 | -121.74216 | 10386 ft | 188 kts | 11° |
| 2026-05-06 04:54 | 38.10068 | -121.73943 | 10296 ft | 191 kts | 11° |
| 2026-05-06 04:54 | 38.11371 | -121.73621 | 10329 ft | 187 kts | 12° |
| 2026-05-06 04:54 | 38.12639 | -121.73334 | 10380 ft | 182 kts | 10° |
| 2026-05-06 04:54 | 38.13888 | -121.73076 | 10435 ft | 179 kts | 11° |
| 2026-05-06 04:55 | 38.15127 | -121.72791 | 10409 ft | 181 kts | 11° |
| 2026-05-06 04:55 | 38.16299 | -121.72538 | 10609 ft | 170 kts | 11° |
| 2026-05-06 04:55 | 38.17576 | -121.72303 | 10214 ft | 195 kts | 8° |
| 2026-05-06 04:55 | 38.18928 | -121.72082 | 10179 ft | 197 kts | 9° |
| 2026-05-06 04:56 | 38.20274 | -121.71801 | 10137 ft | 192 kts | 9° |
| 2026-05-06 04:56 | 38.21575 | -121.71573 | 10237 ft | 186 kts | 9° |
| 2026-05-06 04:56 | 38.22865 | -121.71220 | 10254 ft | 196 kts | 14° |
| 2026-05-06 04:56 | 38.24204 | -121.70807 | 10484 ft | 197 kts | 14° |
| 2026-05-06 04:57 | 38.25528 | -121.70349 | 10607 ft | 207 kts | 16° |
| 2026-05-06 04:57 | 38.26930 | -121.69904 | 10777 ft | 212 kts | 14° |
| 2026-05-06 04:57 | 38.28430 | -121.69494 | 10788 ft | 225 kts | 11° |
| 2026-05-06 04:57 | 38.29994 | -121.69123 | 10614 ft | 243 kts | 12° |
| 2026-05-06 04:58 | 38.31448 | -121.68678 | 11630 ft | 202 kts | 15° |
| 2026-05-06 04:58 | 38.32875 | -121.68218 | 11488 ft | 220 kts | 15° |
| 2026-05-06 04:58 | 38.34407 | -121.67723 | 11381 ft | 233 kts | 15° |
| 2026-05-06 04:58 | 38.35981 | -121.67211 | 11271 ft | 239 kts | 15° |
| 2026-05-06 04:59 | 38.37602 | -121.66682 | 11147 ft | 242 kts | 15° |
| 2026-05-06 04:59 | 38.39239 | -121.66141 | 11028 ft | 244 kts | 15° |
| 2026-05-06 04:59 | 38.40894 | -121.65592 | 10909 ft | 246 kts | 15° |
| 2026-05-06 04:59 | 38.42554 | -121.65039 | 10787 ft | 247 kts | 15° |
| 2026-05-06 05:00 | 38.44224 | -121.64478 | 10669 ft | 248 kts | 15° |
| 2026-05-06 05:00 | 38.45896 | -121.63913 | 10552 ft | 249 kts | 15° |
| 2026-05-06 05:00 | 38.47573 | -121.63342 | 10433 ft | 250 kts | 15° |
| 2026-05-06 05:00 | 38.49251 | -121.62768 | 10356 ft | 249 kts | 15° |
| 2026-05-06 05:01 | 38.50910 | -121.62200 | 10380 ft | 245 kts | 15° |
| 2026-05-06 05:01 | 38.52547 | -121.61637 | 10361 ft | 243 kts | 15° |
| 2026-05-06 05:01 | 38.54184 | -121.61060 | 9922 ft | 247 kts | 15° |
| 2026-05-06 05:01 | 38.55805 | -121.60619 | 9414 ft | 234 kts | 2° |
| 2026-05-06 05:02 | 38.57405 | -121.60936 | 8645 ft | 232 kts | 346° |
| 2026-05-06 05:02 | 38.58890 | -121.61462 | 8097 ft | 213 kts | 344° |
| 2026-05-06 05:02 | 38.60292 | -121.62000 | 7316 ft | 209 kts | 343° |
| 2026-05-06 05:02 | 38.61642 | -121.62616 | 6562 ft | 208 kts | 333° |
| 2026-05-06 05:03 | 38.62912 | -121.63490 | 5618 ft | 211 kts | 330° |
| 2026-05-06 05:03 | 38.64218 | -121.64445 | 4805 ft | 211 kts | 330° |
| 2026-05-06 05:03 | 38.65568 | -121.65035 | 4207 ft | 203 kts | 348° |
| 2026-05-06 05:03 | 38.66941 | -121.65145 | 3781 ft | 193 kts | 356° |
| 2026-05-06 05:04 | 38.68308 | -121.65151 | 3378 ft | 200 kts | 358° |
| 2026-05-06 05:04 | 38.69723 | -121.65151 | 3001 ft | 199 kts | 357° |
| 2026-05-06 05:04 | 38.71020 | -121.65094 | 2847 ft | 180 kts | 2° |
| 2026-05-06 05:04 | 38.72249 | -121.64953 | 2515 ft | 174 kts | 2° |
| 2026-05-06 05:05 | 38.73482 | -121.64815 | 1969 ft | 179 kts | 3° |
| 2026-05-06 05:05 | 38.74646 | -121.64689 | 1857 ft | 158 kts | 2° |
| 2026-05-06 05:05 | 38.75674 | -121.64583 | 1748 ft | 144 kts | 3° |
| 2026-05-06 05:05 | 38.76598 | -121.64447 | 1753 ft | 121 kts | 16° |
| 2026-05-06 05:06 | 38.77113 | -121.63711 | 1734 ft | 113 kts | 78° |
| 2026-05-06 05:06 | 38.77236 | -121.62708 | 1612 ft | 116 kts | 83° |
| 2026-05-06 05:06 | 38.77378 | -121.61768 | 1514 ft | 98 kts | 81° |
| 2026-05-06 05:06 | 38.77412 | -121.60931 | 1425 ft | 91 kts | 110° |
| 2026-05-06 05:07 | 38.77075 | -121.60297 | 1388 ft | 84 kts | 144° |
| 2026-05-06 05:07 | 38.76529 | -121.59930 | 1242 ft | 94 kts | 169° |
| 2026-05-06 05:07 | 38.75876 | -121.59897 | 1161 ft | 97 kts | 186° |
| 2026-05-06 05:07 | 38.75220 | -121.59977 | 1166 ft | 92 kts | 187° |
| 2026-05-06 05:08 | 38.74576 | -121.60013 | 1018 ft | 91 kts | 182° |
| 2026-05-06 05:08 | 38.73965 | -121.60030 | 834 ft | 87 kts | 183° |
| 2026-05-06 05:08 | 38.73366 | -121.60060 | 640 ft | 85 kts | 183° |
| 2026-05-06 05:08 | 38.72777 | -121.60071 | 486 ft | 83 kts | 180° |
| 2026-05-06 05:09 | 38.72202 | -121.60064 | 331 ft | 81 kts | 181° |
| 2026-05-06 05:09 | 38.71640 | -121.60098 | 237 ft | 81 kts | 182° |
| 2026-05-06 05:09 | 38.71069 | -121.60095 | 152 ft | 82 kts | 183° |
| 2026-05-06 05:09 | 38.70514 | -121.60106 | 29 ft | 75 kts | 181° |
| 2026-05-06 05:10 | 38.70040 | -121.60112 | 18 ft | 62 kts | 181° |
| 2026-05-06 05:10 | 38.69661 | -121.60126 | 15 ft | 40 kts | 180° |
| 2026-05-06 05:10 | 38.69497 | -121.60087 | 16 ft | 17 kts | 156° |
| 2026-05-06 05:10 | 38.69403 | -121.60033 | 17 ft | 12 kts | 153° |